createdAt,value
2017-05-06T00:01:02.263Z,85.30
2017-05-06T00:03:31.246Z,85.20
2017-05-06T00:06:00.214Z,85.30
2017-05-06T00:08:29.945Z,84.80
2017-05-06T00:10:58.931Z,84.80
2017-05-06T00:13:28.652Z,85.00
2017-05-06T00:15:57.716Z,85.10
2017-05-06T00:18:26.742Z,85.30
2017-05-06T00:20:55.626Z,85.10
2017-05-06T00:23:24.743Z,85.10
2017-05-06T00:25:53.787Z,84.90
2017-05-06T00:28:22.833Z,84.90
2017-05-06T00:30:51.886Z,85.00
2017-05-06T00:33:20.915Z,85.00
2017-05-06T00:35:49.949Z,84.70
2017-05-06T00:38:19.017Z,84.80
2017-05-06T00:40:48.064Z,84.80
2017-05-06T00:43:17.089Z,84.90
2017-05-06T00:45:46.153Z,84.90
2017-05-06T00:48:15.177Z,85.00
2017-05-06T00:50:44.217Z,85.30
2017-05-06T00:53:13.276Z,84.50
2017-05-06T00:55:42.324Z,84.80
2017-05-06T00:58:11.349Z,84.80
2017-05-06T01:00:41.141Z,84.90
2017-05-06T01:03:10.185Z,84.80
2017-05-06T01:05:39.214Z,84.70
2017-05-06T01:08:08.262Z,84.70
2017-05-06T01:10:37.293Z,84.80
2017-05-06T01:13:06.317Z,84.40
2017-05-06T01:15:35.385Z,84.40
2017-05-06T01:18:04.428Z,84.80
2017-05-06T01:20:33.477Z,85.50
2017-05-06T01:23:02.556Z,84.90
2017-05-06T01:25:31.595Z,85.40
2017-05-06T01:28:01.381Z,84.60
2017-05-06T01:30:30.434Z,84.90
2017-05-06T01:32:59.476Z,84.90
2017-05-06T01:35:28.456Z,84.60
2017-05-06T01:37:57.509Z,84.30
2017-05-06T01:43:05.341Z,84.40
2017-05-06T01:45:34.306Z,84.60
2017-05-06T01:48:04.005Z,84.60
2017-05-06T01:50:33.621Z,84.80
2017-05-06T01:53:03.329Z,84.80
2017-05-06T01:55:33.056Z,84.30
2017-05-06T01:58:02.066Z,84.30
2017-05-06T02:00:31.033Z,84.40
2017-05-06T02:03:00.759Z,84.20
2017-05-06T02:05:29.776Z,84.20
2017-05-06T02:07:59.165Z,83.80
2017-05-06T02:10:28.148Z,84.10
2017-05-06T02:12:57.157Z,84.30
2017-05-06T02:15:26.141Z,84.20
2017-05-06T02:17:55.105Z,84.10
2017-05-06T02:20:24.118Z,84.30
2017-05-06T02:22:53.103Z,84.00
2017-05-06T02:25:22.810Z,84.00
2017-05-06T02:27:52.967Z,84.20
2017-05-06T02:30:21.947Z,84.10
2017-05-06T02:32:50.929Z,84.40
2017-05-06T02:35:20.657Z,84.20
2017-05-06T02:37:49.627Z,84.40
2017-05-06T02:40:19.330Z,84.60
2017-05-06T02:42:49.065Z,84.50
2017-05-06T02:45:18.047Z,84.60
2017-05-06T02:47:47.754Z,84.50
2017-05-06T02:50:16.783Z,84.00
2017-05-06T02:52:45.782Z,84.10
2017-05-06T02:55:14.761Z,84.00
2017-05-06T02:57:43.755Z,84.00
2017-05-06T03:00:12.739Z,84.00
2017-05-06T03:02:41.724Z,83.40
2017-05-06T03:05:10.731Z,83.30
2017-05-06T03:07:39.711Z,83.60
2017-05-06T03:10:09.430Z,83.60
2017-05-06T03:12:38.440Z,83.90
2017-05-06T03:15:07.423Z,83.70
2017-05-06T03:17:36.405Z,84.10
2017-05-06T03:20:05.397Z,84.20
2017-05-06T03:22:35.124Z,84.10
2017-05-06T03:25:04.093Z,83.90
2017-05-06T03:27:33.840Z,83.80
2017-05-06T03:30:02.805Z,83.70
2017-05-06T03:32:31.790Z,83.60
2017-05-06T03:35:01.543Z,83.60
2017-05-06T03:37:30.516Z,83.60
2017-05-06T03:39:59.484Z,83.40
2017-05-06T03:42:29.241Z,83.60
2017-05-06T03:44:58.223Z,83.40
2017-05-06T03:47:27.212Z,83.50
2017-05-06T03:49:56.212Z,83.30
2017-05-06T03:52:25.181Z,83.40
2017-05-06T03:54:54.904Z,83.10
2017-05-06T03:57:24.308Z,83.30
2017-05-06T03:59:53.277Z,83.40
2017-05-06T04:02:22.998Z,83.10
2017-05-06T04:04:52.729Z,83.40
2017-05-06T04:07:21.698Z,83.70
2017-05-06T04:09:51.418Z,83.70
2017-05-06T04:12:20.420Z,84.10
2017-05-06T04:14:49.384Z,82.70
2017-05-06T04:17:18.362Z,82.30
2017-05-06T04:19:47.297Z,82.60
2017-05-06T04:22:16.215Z,82.70
2017-05-06T04:24:45.143Z,82.50
2017-05-06T04:27:14.547Z,82.50
2017-05-06T04:29:43.474Z,82.20
2017-05-06T04:32:12.402Z,82.70
2017-05-06T04:34:41.349Z,82.50
2017-05-06T04:37:11.015Z,82.30
2017-05-06T04:39:39.947Z,82.20
2017-05-06T04:42:09.627Z,82.30
2017-05-06T04:44:38.555Z,82.40
2017-05-06T04:47:08.219Z,82.40
2017-05-06T04:49:37.157Z,82.20
2017-05-06T04:52:06.809Z,82.20
2017-05-06T04:54:35.735Z,82.20
2017-05-06T04:57:04.665Z,82.00
2017-05-06T04:59:33.574Z,81.60
2017-05-06T05:02:02.511Z,80.80
2017-05-06T05:04:31.472Z,81.10
2017-05-06T05:07:00.405Z,80.50
2017-05-06T05:09:30.072Z,80.90
2017-05-06T05:11:59.008Z,81.00
2017-05-06T05:14:28.662Z,81.50
2017-05-06T05:16:57.596Z,81.80
2017-05-06T05:19:26.774Z,81.70
2017-05-06T05:21:55.701Z,81.40
2017-05-06T05:24:25.348Z,80.50
2017-05-06T05:26:54.285Z,80.50
2017-05-06T05:29:23.197Z,80.40
2017-05-06T05:31:52.870Z,80.30
2017-05-06T05:34:21.805Z,79.90
2017-05-06T05:36:50.722Z,80.10
2017-05-06T05:39:19.663Z,79.40
2017-05-06T05:41:48.594Z,79.30
2017-05-06T05:44:17.535Z,79.10
2017-05-06T05:46:46.450Z,79.60
2017-05-06T05:49:15.380Z,79.50
2017-05-06T05:51:44.289Z,80.10
2017-05-06T05:54:13.941Z,79.50
2017-05-06T05:56:42.873Z,79.60
2017-05-06T05:59:13.081Z,79.80
2017-05-06T06:01:42.012Z,79.80
2017-05-06T06:04:11.702Z,79.00
2017-05-06T06:06:40.635Z,79.10
2017-05-06T06:09:09.564Z,78.50
2017-05-06T06:11:38.523Z,78.60
2017-05-06T06:14:07.433Z,78.10
2017-05-06T06:16:36.352Z,78.10
2017-05-06T06:19:05.315Z,78.20
2017-05-06T06:21:34.230Z,77.90
2017-05-06T06:24:03.160Z,78.00
2017-05-06T06:26:32.849Z,77.90
2017-05-06T06:29:01.761Z,77.60
2017-05-06T06:31:31.427Z,77.00
2017-05-06T06:34:00.387Z,76.70
2017-05-06T06:36:29.316Z,75.70
2017-05-06T06:38:58.243Z,74.10
2017-05-06T06:41:27.935Z,74.10
2017-05-06T06:43:56.863Z,73.50
2017-05-06T06:46:25.796Z,73.60
2017-05-06T06:48:54.729Z,73.30
2017-05-06T06:51:24.394Z,71.80
2017-05-06T06:53:53.303Z,71.40
2017-05-06T06:56:22.273Z,71.10
2017-05-06T06:58:51.203Z,70.60
2017-05-06T07:01:20.116Z,71.20
2017-05-06T07:03:49.805Z,71.40
2017-05-06T07:06:18.715Z,71.40
2017-05-06T07:08:48.374Z,70.80
2017-05-06T07:11:17.348Z,70.80
2017-05-06T07:13:46.275Z,70.80
2017-05-06T07:16:15.203Z,71.00
2017-05-06T07:18:44.895Z,70.60
2017-05-06T07:21:13.816Z,70.10
2017-05-06T07:23:43.465Z,67.90
2017-05-06T07:26:12.515Z,66.70
2017-05-06T07:28:42.183Z,67.40
2017-05-06T07:31:11.104Z,64.80
2017-05-06T07:33:40.034Z,64.40
2017-05-06T07:36:08.958Z,65.80
2017-05-06T07:38:37.861Z,63.70
2017-05-06T07:41:06.808Z,63.60
2017-05-06T07:43:35.727Z,64.20
2017-05-06T07:46:04.624Z,63.70
2017-05-06T07:48:33.557Z,63.60
2017-05-06T07:51:02.481Z,63.70
2017-05-06T07:53:31.384Z,63.10
2017-05-06T07:56:01.337Z,63.10
2017-05-06T07:58:30.259Z,59.80
2017-05-06T08:00:59.924Z,60.70
2017-05-06T08:03:28.861Z,60.10
2017-05-06T08:05:58.525Z,59.50
2017-05-06T08:08:27.434Z,59.10
2017-05-06T08:10:56.372Z,59.90
2017-05-06T08:13:25.306Z,61.80
2017-05-06T08:15:54.227Z,60.30
2017-05-06T08:18:23.901Z,58.60
2017-05-06T08:20:52.809Z,58.10
2017-05-06T08:23:21.713Z,58.90
2017-05-06T08:25:51.403Z,59.60
2017-05-06T08:28:20.306Z,59.60
2017-05-06T08:30:49.282Z,59.80
2017-05-06T08:33:18.212Z,61.10
2017-05-06T08:35:47.882Z,60.40
2017-05-06T08:38:16.789Z,60.70
2017-05-06T08:40:45.721Z,61.80
2017-05-06T08:43:14.647Z,62.60
2017-05-06T08:45:43.573Z,62.50
2017-05-06T08:48:12.523Z,63.10
2017-05-06T08:50:41.434Z,64.10
2017-05-06T08:53:10.367Z,64.70
2017-05-06T08:55:40.050Z,64.70
2017-05-06T08:58:08.948Z,64.50
2017-05-06T09:00:37.850Z,64.60
2017-05-06T09:03:07.551Z,65.80
2017-05-06T09:05:36.459Z,65.30
2017-05-06T09:08:06.127Z,65.60
2017-05-06T09:10:35.079Z,65.60
2017-05-06T09:13:03.988Z,65.60
2017-05-06T09:15:32.893Z,64.50
2017-05-06T09:18:01.830Z,64.50
2017-05-06T09:20:31.481Z,64.40
2017-05-06T09:23:00.384Z,65.10
2017-05-06T09:25:29.336Z,64.60
2017-05-06T09:27:58.976Z,65.30
2017-05-06T09:30:27.900Z,64.40
2017-05-06T09:32:56.843Z,63.90
2017-05-06T09:35:25.752Z,63.40
2017-05-06T09:37:54.657Z,62.40
2017-05-06T09:40:23.590Z,62.70
2017-05-06T09:42:52.511Z,62.10
2017-05-06T09:45:21.439Z,61.10
2017-05-06T09:47:50.388Z,61.80
2017-05-06T09:50:19.301Z,61.90
2017-05-06T09:52:48.210Z,61.80
2017-05-06T09:55:17.160Z,59.40
2017-05-06T09:57:46.814Z,57.80
2017-05-06T10:00:15.740Z,54.50
2017-05-06T10:02:44.691Z,54.40
2017-05-06T10:05:13.619Z,54.80
2017-05-06T10:07:42.543Z,54.50
2017-05-06T10:10:12.217Z,54.70
2017-05-06T10:12:41.140Z,54.80
2017-05-06T10:15:10.788Z,54.40
2017-05-06T10:17:39.735Z,53.60
2017-05-06T10:20:09.413Z,51.60
2017-05-06T10:22:38.316Z,51.60
2017-05-06T10:25:07.246Z,48.90
2017-05-06T10:27:36.156Z,48.80
2017-05-06T10:30:05.082Z,46.80
2017-05-06T10:32:34.014Z,42.60
2017-05-06T10:35:03.678Z,43.20
2017-05-06T10:37:32.603Z,38.70
2017-05-06T10:40:02.295Z,35.90
2017-05-06T10:42:31.196Z,34.70
2017-05-06T10:45:00.120Z,35.30
2017-05-06T10:47:29.054Z,38.20
2017-05-06T10:50:05.078Z,38.70
2017-05-06T10:52:34.005Z,36.20
2017-05-06T10:55:02.913Z,36.60
2017-05-06T10:57:32.344Z,37.20
2017-05-06T11:00:02.045Z,36.40
2017-05-06T11:02:31.698Z,37.90
2017-05-06T11:05:00.600Z,38.00
2017-05-06T11:07:29.537Z,38.40
2017-05-06T11:09:59.180Z,38.90
2017-05-06T11:12:28.108Z,38.40
2017-05-06T11:14:57.065Z,34.70
2017-05-06T11:17:25.988Z,31.10
2017-05-06T11:19:54.919Z,30.50
2017-05-06T11:22:24.602Z,29.80
2017-05-06T11:24:53.530Z,29.40
2017-05-06T11:27:22.463Z,30.00
2017-05-06T11:29:51.426Z,31.50
2017-05-06T11:32:20.362Z,33.70
2017-05-06T11:34:49.292Z,35.60
2017-05-06T11:37:18.968Z,36.20
2017-05-06T11:39:47.891Z,38.00
2017-05-06T11:42:17.544Z,40.60
2017-05-06T11:44:46.488Z,42.50
2017-05-06T11:47:15.393Z,42.90
2017-05-06T11:49:45.063Z,44.10
2017-05-06T11:52:14.019Z,45.40
2017-05-06T11:54:42.924Z,45.30
2017-05-06T11:57:11.838Z,44.90
2017-05-06T11:59:40.788Z,44.80
2017-05-06T12:02:09.723Z,45.70
2017-05-06T12:04:38.630Z,46.90
2017-05-06T12:07:07.581Z,46.60
2017-05-06T12:09:36.503Z,46.90
2017-05-06T12:12:05.416Z,45.50
2017-05-06T12:14:34.367Z,45.40
2017-05-06T12:17:03.278Z,45.50
2017-05-06T12:19:32.205Z,45.50
2017-05-06T12:22:02.203Z,45.20
2017-05-06T12:24:31.105Z,45.50
2017-05-06T12:27:01.642Z,45.20
2017-05-06T12:29:31.335Z,45.10
2017-05-06T12:32:00.259Z,46.30
2017-05-06T12:34:29.187Z,46.30
2017-05-06T12:36:58.135Z,45.20
2017-05-06T12:39:27.795Z,44.60
2017-05-06T12:41:56.702Z,45.40
2017-05-06T12:44:25.646Z,45.80
2017-05-06T12:46:54.549Z,45.20
2017-05-06T12:49:23.453Z,45.20
2017-05-06T12:51:52.385Z,44.80
2017-05-06T12:54:21.292Z,45.80
2017-05-06T12:56:50.956Z,44.70
2017-05-06T12:59:19.921Z,45.10
2017-05-06T13:01:48.843Z,45.20
2017-05-06T13:04:17.763Z,46.20
2017-05-06T13:06:46.707Z,47.00
2017-05-06T13:09:15.612Z,46.80
2017-05-06T13:11:45.447Z,47.00
2017-05-06T13:14:14.394Z,46.80
2017-05-06T13:16:43.300Z,47.00
2017-05-06T13:19:12.204Z,48.00
2017-05-06T13:21:41.258Z,49.00
2017-05-06T13:24:10.921Z,49.00
2017-05-06T13:26:39.825Z,50.00
2017-05-06T13:29:08.771Z,51.40
2017-05-06T13:31:37.676Z,52.70
2017-05-06T13:34:06.583Z,52.50
2017-05-06T13:36:35.536Z,53.10
2017-05-06T13:39:04.444Z,53.90
2017-05-06T13:41:33.367Z,54.00
2017-05-06T13:44:02.319Z,54.30
2017-05-06T13:46:31.242Z,54.80
2017-05-06T13:49:00.158Z,55.80
2017-05-06T13:51:29.121Z,55.60
2017-05-06T13:53:58.044Z,55.60
2017-05-06T13:56:27.008Z,55.30
2017-05-06T13:58:55.972Z,54.10
2017-05-06T14:01:24.888Z,54.00
2017-05-06T14:03:53.840Z,53.50
2017-05-06T14:06:23.538Z,53.70
2017-05-06T14:08:52.467Z,53.30
2017-05-06T14:11:22.137Z,52.90
2017-05-06T14:13:51.091Z,51.90
2017-05-06T14:16:20.010Z,52.10
2017-05-06T14:18:48.935Z,50.50
2017-05-06T14:21:17.895Z,50.00
2017-05-06T14:23:46.810Z,49.90
2017-05-06T14:26:15.739Z,51.00
2017-05-06T14:28:44.676Z,50.70
2017-05-06T14:31:13.584Z,50.80
2017-05-06T14:33:42.494Z,51.80
2017-05-06T14:36:11.448Z,51.60
2017-05-06T14:38:40.365Z,50.70
2017-05-06T14:41:09.274Z,49.80
2017-05-06T14:43:38.969Z,50.10
2017-05-06T14:46:07.885Z,48.10
2017-05-06T14:48:37.537Z,48.20
2017-05-06T14:51:06.516Z,48.70
2017-05-06T14:53:35.426Z,50.30
2017-05-06T14:56:04.355Z,49.70
2017-05-06T14:58:33.308Z,50.00
2017-05-06T15:01:02.220Z,50.70
2017-05-06T15:03:31.146Z,52.10
2017-05-06T15:06:00.847Z,51.00
2017-05-06T15:08:30.244Z,51.10
2017-05-06T15:10:59.152Z,51.30
2017-05-06T15:13:28.837Z,51.90
2017-05-06T15:15:57.763Z,53.20
2017-05-06T15:18:27.408Z,52.60
2017-05-06T15:20:56.358Z,52.90
2017-05-06T15:23:26.028Z,53.80
2017-05-06T15:25:54.945Z,54.30
2017-05-06T15:28:24.647Z,55.50
2017-05-06T15:30:53.561Z,54.50
2017-05-06T15:33:23.209Z,52.90
2017-05-06T15:35:52.141Z,52.00
2017-05-06T15:38:21.116Z,52.30
2017-05-06T15:40:50.042Z,52.70
2017-05-06T15:43:19.721Z,52.70
2017-05-06T15:45:48.630Z,53.50
2017-05-06T15:48:17.550Z,53.90
2017-05-06T15:50:47.254Z,53.60
2017-05-06T15:53:16.926Z,52.90
2017-05-06T15:55:45.850Z,53.90
2017-05-06T15:58:14.788Z,53.60
2017-05-06T16:00:43.711Z,53.20
2017-05-06T16:03:12.656Z,54.40
2017-05-06T16:05:42.337Z,54.60
2017-05-06T16:08:11.260Z,54.90
2017-05-06T16:10:40.223Z,55.80
2017-05-06T16:13:09.184Z,55.10
2017-05-06T16:15:38.093Z,55.20
2017-05-06T16:18:07.090Z,56.40
2017-05-06T16:20:36.023Z,58.00
2017-05-06T16:23:04.946Z,56.90
2017-05-06T16:25:33.857Z,56.70
2017-05-06T16:28:02.804Z,57.60
2017-05-06T16:30:31.719Z,56.40
2017-05-06T16:33:00.659Z,56.50
2017-05-06T16:35:29.609Z,57.20
2017-05-06T16:37:58.566Z,57.60
2017-05-06T16:40:28.221Z,57.40
2017-05-06T16:42:57.184Z,57.00
2017-05-06T16:45:26.093Z,56.90
2017-05-06T16:47:55.083Z,57.60
2017-05-06T16:50:24.045Z,58.20
2017-05-06T16:52:53.811Z,58.60
2017-05-06T16:55:22.751Z,58.50
2017-05-06T16:57:52.435Z,58.30
2017-05-06T17:00:21.411Z,58.10
2017-05-06T17:02:50.330Z,57.80
2017-05-06T17:05:19.295Z,57.90
2017-05-06T17:07:48.205Z,57.50
2017-05-06T17:10:17.152Z,57.30
2017-05-06T17:12:46.150Z,58.10
2017-05-06T17:15:15.077Z,58.50
2017-05-06T17:17:44.009Z,58.70
2017-05-06T17:20:12.953Z,59.00
2017-05-06T17:22:41.865Z,59.80
2017-05-06T17:25:10.795Z,60.50
2017-05-06T17:27:39.728Z,61.00
2017-05-06T17:30:08.700Z,61.00
2017-05-06T17:32:37.631Z,61.10
2017-05-06T17:35:06.564Z,61.80
2017-05-06T17:37:35.503Z,62.50
2017-05-06T17:40:04.409Z,62.50
2017-05-06T17:42:33.356Z,62.60
2017-05-06T17:45:02.270Z,62.60
2017-05-06T17:47:31.200Z,63.00
2017-05-06T17:50:00.899Z,63.70
2017-05-06T17:52:29.827Z,63.70
2017-05-06T17:54:58.758Z,64.10
2017-05-06T17:57:27.705Z,64.10
2017-05-06T17:59:56.621Z,64.40
2017-05-06T18:02:25.547Z,64.50
2017-05-06T18:04:54.503Z,64.60
2017-05-06T18:07:23.428Z,64.30
2017-05-06T18:09:52.365Z,64.40
2017-05-06T18:12:22.041Z,64.40
2017-05-06T18:14:50.956Z,64.50
2017-05-06T18:17:20.627Z,64.90
2017-05-06T18:19:49.573Z,64.90
2017-05-06T18:22:18.484Z,66.10
2017-05-06T18:24:47.414Z,65.70
2017-05-06T18:27:16.373Z,65.80
2017-05-06T18:29:45.287Z,66.00
2017-05-06T18:32:14.220Z,66.40
2017-05-06T18:34:43.893Z,66.90
2017-05-06T18:37:12.813Z,66.90
2017-05-06T18:39:42.472Z,67.10
2017-05-06T18:42:11.427Z,67.20
2017-05-06T18:44:40.383Z,66.60
2017-05-06T18:47:09.318Z,66.10
2017-05-06T18:49:38.998Z,66.20
2017-05-06T18:52:07.946Z,66.60
2017-05-06T18:54:36.881Z,66.70
2017-05-06T18:57:05.851Z,66.80
2017-05-06T18:59:34.785Z,66.70
2017-05-06T19:02:04.432Z,67.00
2017-05-06T19:04:33.386Z,67.00
2017-05-06T19:07:03.109Z,67.30
2017-05-06T19:09:32.763Z,67.00
2017-05-06T19:12:01.717Z,67.10
2017-05-06T19:14:30.671Z,67.40
2017-05-06T19:16:59.593Z,67.50
2017-05-06T19:19:28.551Z,67.50
2017-05-06T19:21:57.510Z,67.70
2017-05-06T19:24:26.422Z,68.10
2017-05-06T19:26:55.727Z,68.10
2017-05-06T19:29:24.669Z,68.20
2017-05-06T19:31:53.593Z,68.60
2017-05-06T19:34:22.579Z,68.80
2017-05-06T19:36:51.508Z,69.00
2017-05-06T19:39:20.484Z,68.50
2017-05-06T19:41:49.446Z,68.40
2017-05-06T19:44:18.378Z,68.60
2017-05-06T19:46:47.342Z,68.80
2017-05-06T19:49:16.306Z,68.90
2017-05-06T19:51:45.227Z,69.20
2017-05-06T19:54:14.188Z,69.00
2017-05-06T19:56:43.135Z,69.50
2017-05-06T19:59:12.087Z,69.60
2017-05-06T20:01:41.012Z,69.80
2017-05-06T20:04:09.962Z,69.60
2017-05-06T20:06:38.899Z,69.60
2017-05-06T20:09:07.845Z,69.80
2017-05-06T20:11:36.813Z,70.20
2017-05-06T20:14:06.775Z,69.80
2017-05-06T20:16:35.711Z,70.10
2017-05-06T20:19:04.673Z,70.30
2017-05-06T20:21:33.603Z,70.50
2017-05-06T20:24:02.517Z,70.60
2017-05-06T20:26:32.198Z,70.90
2017-05-06T20:29:01.124Z,71.00
2017-05-06T20:31:30.040Z,71.00
2017-05-06T20:33:58.976Z,71.20
2017-05-06T20:36:27.891Z,70.90
2017-05-06T20:38:57.544Z,71.00
2017-05-06T20:41:26.511Z,71.20
2017-05-06T20:43:55.445Z,71.20
2017-05-06T20:46:24.372Z,71.20
2017-05-06T20:48:54.051Z,71.20
2017-05-06T20:51:22.983Z,71.70
2017-05-06T20:53:52.683Z,72.00
2017-05-06T20:56:22.369Z,72.00
2017-05-06T20:58:51.299Z,72.10
2017-05-06T21:01:20.972Z,71.80
2017-05-06T21:03:49.923Z,71.50
2017-05-06T21:06:18.855Z,71.40
2017-05-06T21:08:47.796Z,71.80
2017-05-06T21:11:16.750Z,72.20
2017-05-06T21:13:45.660Z,71.90
2017-05-06T21:16:15.335Z,72.10
2017-05-06T21:18:44.275Z,72.20
2017-05-06T21:21:13.207Z,72.20
2017-05-06T21:23:42.137Z,72.40
2017-05-06T21:26:11.077Z,72.30
2017-05-06T21:28:40.013Z,72.10
2017-05-06T21:31:08.921Z,72.00
2017-05-06T21:33:38.636Z,72.00
2017-05-06T21:36:07.598Z,72.40
2017-05-06T21:38:36.511Z,72.30
2017-05-06T21:41:06.197Z,72.80
2017-05-06T21:43:35.109Z,72.50
2017-05-06T21:46:04.030Z,74.00
2017-05-06T21:48:32.968Z,73.10
2017-05-06T21:51:01.896Z,73.30
2017-05-06T21:53:31.580Z,73.30
2017-05-06T21:56:00.542Z,73.20
2017-05-06T21:58:29.466Z,73.20
2017-05-06T22:00:58.390Z,73.80
2017-05-06T22:03:27.335Z,73.70
2017-05-06T22:05:56.268Z,73.40
2017-05-06T22:08:25.921Z,73.50
2017-05-06T22:10:54.867Z,73.60
2017-05-06T22:13:24.519Z,73.30
2017-05-06T22:15:53.450Z,73.30
2017-05-06T22:18:22.405Z,73.80
2017-05-06T22:20:51.345Z,73.70
2017-05-06T22:23:20.268Z,73.50
2017-05-06T22:25:49.210Z,73.70
2017-05-06T22:28:18.167Z,73.60
2017-05-06T22:30:47.104Z,73.70
2017-05-06T22:33:16.059Z,74.10
2017-05-06T22:35:44.978Z,74.40
2017-05-06T22:38:13.907Z,74.80
2017-05-06T22:40:43.590Z,75.00
2017-05-06T22:43:12.509Z,74.60
2017-05-06T22:45:42.166Z,74.50
2017-05-06T22:48:11.126Z,74.20
2017-05-06T22:50:40.055Z,74.20
2017-05-06T22:53:08.969Z,74.20
2017-05-06T22:55:37.917Z,74.10
2017-05-06T22:58:06.829Z,74.20
2017-05-06T23:00:35.742Z,74.10
2017-05-06T23:03:04.692Z,74.00
2017-05-06T23:05:33.602Z,74.20
2017-05-06T23:08:02.531Z,74.10
2017-05-06T23:10:31.490Z,74.30
2017-05-06T23:13:00.402Z,74.10
2017-05-06T23:15:29.317Z,74.20
2017-05-06T23:17:59.002Z,74.90
2017-05-06T23:20:27.916Z,74.20
2017-05-06T23:22:56.829Z,74.10
2017-05-06T23:25:25.765Z,75.20
2017-05-06T23:27:54.701Z,74.40
2017-05-06T23:30:24.358Z,74.80
2017-05-06T23:32:53.328Z,75.60
2017-05-06T23:35:22.255Z,74.40
2017-05-06T23:37:51.185Z,74.00
2017-05-06T23:40:20.887Z,74.30
2017-05-06T23:42:50.571Z,74.20
2017-05-06T23:45:19.489Z,74.50
2017-05-06T23:47:48.447Z,74.80
2017-05-06T23:50:17.387Z,74.30
2017-05-06T23:52:47.056Z,74.50
2017-05-06T23:55:16.003Z,74.10
2017-05-06T23:57:44.935Z,74.40
